Time;durP1;ratioP1;P1;durP2;ratioP2;P2;SDS_P1;SDS_P2;PMS_P1;PMS_P2;Temp;Humidity;BMP_temperature;BMP_pressure;BME280_temperature;BME280_humidity;BME280_pressure;Samples;Min_cycle;Max_cycle;Signal;HPM_P1;HPM_P2
2022/01/16 00:00:02;;;;;;;36.15;17.05;;;2.70;97.00;;;;;;2065851;28;20042;-86
2022/01/16 00:04:06;;;;;;;36.88;16.77;;;2.70;97.00;;;;;;2055309;28;20042;-87
2022/01/16 00:05:07;;;;;;;33.10;16.08;;;2.70;97.00;;;;;;2056530;28;20039;-87
2022/01/16 00:06:08;;;;;;;31.20;15.70;;;2.60;97.00;;;;;;2063910;28;20169;-87
2022/01/16 00:07:09;;;;;;;32.50;15.00;;;2.60;97.00;;;;;;2055968;28;20039;-87
2022/01/16 00:08:11;;;;;;;37.33;16.70;;;2.60;97.00;;;;;;2055944;28;20050;-87
2022/01/16 00:09:13;;;;;;;30.63;14.95;;;2.70;97.10;;;;;;2080242;28;20083;-87
2022/01/16 00:10:14;;;;;;;32.00;16.33;;;2.60;97.00;;;;;;2072519;28;20066;-87
2022/01/16 00:11:15;;;;;;;31.75;16.38;;;2.60;97.00;;;;;;2070726;28;20034;-86
2022/01/16 00:12:18;;;;;;;31.65;15.98;;;2.60;97.30;;;;;;2080605;28;20534;-87
2022/01/16 00:13:19;;;;;;;33.65;17.05;;;2.60;97.00;;;;;;2072678;28;20037;-87
2022/01/16 00:14:20;;;;;;;33.60;16.58;;;2.60;97.00;;;;;;2062840;28;20070;-87
2022/01/16 00:15:21;;;;;;;33.20;17.25;;;2.60;97.00;;;;;;2081114;28;20034;-87
2022/01/16 00:16:23;;;;;;;35.00;16.90;;;2.60;97.10;;;;;;2086107;28;20567;-87
2022/01/16 00:17:27;;;;;;;32.47;16.42;;;2.60;97.00;;;;;;2069813;28;20062;-87
2022/01/16 00:18:39;;;;;;;33.88;16.83;;;2.70;97.00;;;;;;2088135;28;20037;-86
2022/01/16 00:19:40;;;;;;;31.10;16.00;;;2.70;97.00;;;;;;2085846;28;20111;-87
2022/01/16 00:20:41;;;;;;;31.40;16.42;;;2.60;97.00;;;;;;2071200;28;20516;-86
2022/01/16 00:21:42;;;;;;;36.25;17.95;;;2.60;97.00;;;;;;2076705;28;20058;-86
2022/01/16 00:22:45;;;;;;;32.28;16.48;;;2.60;97.00;;;;;;2088550;28;20025;-87
2022/01/16 00:23:46;;;;;;;33.78;16.38;;;2.70;97.00;;;;;;2076266;28;20068;-86
2022/01/16 00:24:46;;;;;;;33.88;16.13;;;2.60;97.00;;;;;;2077977;28;20041;-86
2022/01/16 00:25:47;;;;;;;34.40;16.85;;;2.60;97.00;;;;;;2075222;28;20408;-86
2022/01/16 00:26:47;;;;;;;41.00;18.45;;;2.60;97.00;;;;;;2074630;28;20065;-87
2022/01/16 00:27:49;;;;;;;34.03;17.55;;;2.60;97.00;;;;;;2088137;28;20032;-87
2022/01/16 00:28:51;;;;;;;35.05;17.70;;;2.60;97.00;;;;;;2083351;28;20395;-86
2022/01/16 00:29:51;;;;;;;31.92;17.00;;;2.60;97.00;;;;;;2077232;28;20550;-87
2022/01/16 00:30:52;;;;;;;33.97;17.55;;;2.60;97.00;;;;;;2081131;28;20091;-87
2022/01/16 00:31:53;;;;;;;32.70;16.88;;;2.60;97.00;;;;;;2074464;28;20034;-87
2022/01/16 00:32:59;;;;;;;31.50;16.55;;;2.60;97.00;;;;;;2075648;28;20038;-87
2022/01/16 00:33:59;;;;;;;37.08;17.55;;;2.60;97.10;;;;;;2081771;28;20037;-87
2022/01/16 00:35:01;;;;;;;33.70;16.67;;;2.60;97.10;;;;;;2081478;28;20075;-87
2022/01/16 00:36:01;;;;;;;32.97;17.30;;;2.70;97.10;;;;;;2073417;28;20456;-87
2022/01/16 00:37:02;;;;;;;34.47;18.33;;;2.70;97.10;;;;;;2072134;28;20030;-87
2022/01/16 00:38:03;;;;;;;35.63;18.10;;;2.60;97.00;;;;;;2071437;28;20104;-87
2022/01/16 00:39:05;;;;;;;35.83;17.60;;;2.70;97.00;;;;;;2077863;28;20059;-87
2022/01/16 00:40:08;;;;;;;34.95;17.40;;;2.70;97.00;;;;;;2073642;28;20038;-86
2022/01/16 00:41:08;;;;;;;40.72;19.25;;;2.60;97.00;;;;;;2080774;28;20072;-87
2022/01/16 00:42:09;;;;;;;38.53;18.02;;;2.70;97.10;;;;;;2080905;28;20029;-87
2022/01/16 00:43:10;;;;;;;37.03;19.02;;;2.70;97.00;;;;;;2076780;28;20471;-87
2022/01/16 00:44:10;;;;;;;38.33;18.08;;;2.70;97.00;;;;;;2083125;28;20224;-87
2022/01/16 00:45:11;;;;;;;38.90;18.75;;;2.70;97.00;;;;;;2090980;28;20036;-87
2022/01/16 00:46:12;;;;;;;35.47;18.38;;;2.70;97.10;;;;;;2084995;28;20037;-86
2022/01/16 00:47:13;;;;;;;33.63;17.70;;;2.70;97.10;;;;;;2081318;28;20072;-86
2022/01/16 00:48:14;;;;;;;36.25;17.67;;;2.70;97.10;;;;;;2081607;28;20076;-87
2022/01/16 00:49:14;;;;;;;38.33;19.42;;;2.70;97.10;;;;;;2077587;28;20052;-87
2022/01/16 00:50:15;;;;;;;35.28;18.05;;;2.70;97.30;;;;;;2076919;28;20058;-87
2022/01/16 00:51:17;;;;;;;35.28;17.90;;;2.70;97.00;;;;;;2089108;28;20435;-87
2022/01/16 00:52:19;;;;;;;36.67;18.35;;;2.70;97.00;;;;;;2088797;28;20032;-87
2022/01/16 00:53:19;;;;;;;36.83;18.30;;;2.70;97.00;;;;;;2080521;28;20038;-86
2022/01/16 00:54:20;;;;;;;36.53;17.50;;;2.70;97.00;;;;;;2080438;28;20411;-87
2022/01/16 00:55:21;;;;;;;42.13;20.65;;;2.70;97.00;;;;;;2085990;28;20095;-87
2022/01/16 00:56:21;;;;;;;41.40;20.38;;;2.70;97.00;;;;;;2081252;28;20412;-87
2022/01/16 00:57:22;;;;;;;37.30;20.38;;;2.60;97.00;;;;;;2084970;28;20047;-87
2022/01/16 00:58:23;;;;;;;45.92;20.65;;;2.60;97.00;;;;;;2089714;28;20088;-87
2022/01/16 00:59:23;;;;;;;43.17;21.42;;;2.60;97.00;;;;;;2080737;28;20045;-87
2022/01/16 01:00:24;;;;;;;43.67;20.70;;;2.60;97.00;;;;;;2065838;28;20104;-86
2022/01/16 01:01:25;;;;;;;38.95;20.27;;;2.60;97.00;;;;;;2065397;28;20070;-87
2022/01/16 01:02:25;;;;;;;37.92;19.27;;;2.60;97.00;;;;;;2072566;28;20484;-86
2022/01/16 01:03:26;;;;;;;40.35;20.00;;;2.60;97.00;;;;;;2081640;28;20049;-87
2022/01/16 01:04:27;;;;;;;44.88;20.85;;;2.60;97.10;;;;;;2081354;28;20176;-87
2022/01/16 01:05:27;;;;;;;37.22;18.77;;;2.60;97.10;;;;;;2082715;28;20037;-87
2022/01/16 01:06:28;;;;;;;36.97;19.38;;;2.60;97.00;;;;;;2088426;28;20099;-87
2022/01/16 01:07:29;;;;;;;43.40;20.05;;;2.60;97.10;;;;;;2087611;28;20033;-87
2022/01/16 01:08:30;;;;;;;39.00;19.20;;;2.70;97.10;;;;;;2078618;28;20034;-87
2022/01/16 01:09:31;;;;;;;34.22;18.35;;;2.70;97.10;;;;;;2080843;28;20034;-87
2022/01/16 01:10:35;;;;;;;35.03;17.98;;;2.60;97.10;;;;;;2087634;28;20033;-87
2022/01/16 01:11:38;;;;;;;37.95;19.25;;;2.70;97.10;;;;;;2082517;28;20068;-87
2022/01/16 01:13:08;;;;;;;35.90;18.70;;;2.60;97.00;;;;;;2081314;28;20033;-87
2022/01/16 01:14:15;;;;;;;39.10;18.20;;;2.70;97.10;;;;;;2065993;28;20039;-87
2022/01/16 01:15:15;;;;;;;33.25;16.48;;;2.70;97.10;;;;;;2090120;28;20130;-87
2022/01/16 01:16:16;;;;;;;36.95;18.00;;;2.70;97.00;;;;;;2092202;28;20063;-87
2022/01/16 01:17:23;;;;;;;37.10;18.65;;;2.70;97.00;;;;;;2077832;28;20049;-87
2022/01/16 01:18:24;;;;;;;34.75;17.25;;;2.70;97.00;;;;;;2091658;28;20391;-86
2022/01/16 01:19:32;;;;;;;35.65;18.73;;;2.70;97.00;;;;;;2084700;28;20041;-87
2022/01/16 01:20:32;;;;;;;35.30;18.00;;;2.60;97.00;;;;;;2092186;28;20564;-87
2022/01/16 01:21:33;;;;;;;35.13;17.70;;;2.60;97.00;;;;;;2088385;28;20041;-87
2022/01/16 01:22:34;;;;;;;36.65;18.55;;;2.60;97.00;;;;;;2070442;28;20439;-86
2022/01/16 01:23:35;;;;;;;36.20;18.52;;;2.60;97.00;;;;;;2082187;28;20069;-86
2022/01/16 01:24:36;;;;;;;37.22;18.17;;;2.60;97.00;;;;;;2091356;28;20048;-87
2022/01/16 01:25:38;;;;;;;37.95;18.85;;;2.60;97.00;;;;;;2068466;28;20042;-87
2022/01/16 01:26:49;;;;;;;33.80;17.75;;;2.60;97.00;;;;;;2065288;28;20033;-86
2022/01/16 01:27:50;;;;;;;37.20;19.67;;;2.60;97.00;;;;;;2079426;28;20041;-86
2022/01/16 01:28:50;;;;;;;34.80;18.13;;;2.60;97.00;;;;;;2084639;28;20395;-87
2022/01/16 01:29:59;;;;;;;32.63;17.25;;;2.60;97.00;;;;;;2077083;28;20521;-87
2022/01/16 01:31:00;;;;;;;34.28;18.00;;;2.60;97.00;;;;;;2087226;28;20124;-86
2022/01/16 01:32:01;;;;;;;32.95;17.42;;;2.60;97.00;;;;;;2089404;28;20044;-87
2022/01/16 01:33:02;;;;;;;34.13;16.83;;;2.60;97.00;;;;;;2078504;28;20423;-87
2022/01/16 01:34:02;;;;;;;38.70;17.70;;;2.60;97.00;;;;;;2080207;28;20129;-87
2022/01/16 01:35:05;;;;;;;29.50;17.08;;;2.60;97.30;;;;;;2082071;28;20025;-87
2022/01/16 01:36:06;;;;;;;32.72;16.60;;;2.60;97.00;;;;;;2073471;28;20085;-87
2022/01/16 01:37:07;;;;;;;33.05;17.45;;;2.60;97.00;;;;;;2078479;28;20036;-87
2022/01/16 01:38:09;;;;;;;31.25;16.90;;;2.60;97.00;;;;;;2072527;28;20038;-87
2022/01/16 01:39:09;;;;;;;29.92;16.13;;;2.60;97.00;;;;;;2081708;28;20720;-87
2022/01/16 01:40:22;;;;;;;30.45;16.02;;;2.60;97.00;;;;;;2085027;28;20034;-87
2022/01/16 01:41:25;;;;;;;31.65;15.98;;;2.60;97.10;;;;;;2083760;28;20039;-86
2022/01/16 01:42:41;;;;;;;32.45;16.63;;;2.60;97.10;;;;;;2081991;28;20034;-87
2022/01/16 01:51:42;;;;;;;27.95;14.45;;;2.60;96.90;;;;;;2081877;28;20526;-87
2022/01/16 01:52:42;;;;;;;34.75;16.75;;;2.60;96.90;;;;;;2081956;28;20029;-87
2022/01/16 01:53:45;;;;;;;34.80;16.45;;;2.50;96.90;;;;;;2082570;28;20460;-87
2022/01/16 01:54:47;;;;;;;28.20;15.35;;;2.50;96.90;;;;;;2082635;28;20463;-87
2022/01/16 01:55:47;;;;;;;30.67;16.13;;;2.50;96.90;;;;;;2081816;28;20041;-87
2022/01/16 01:56:48;;;;;;;31.70;16.15;;;2.50;96.90;;;;;;2073583;28;20026;-87
2022/01/16 01:57:49;;;;;;;30.40;16.00;;;2.50;97.00;;;;;;2081977;28;20381;-86
2022/01/16 01:58:55;;;;;;;30.45;16.80;;;2.50;97.00;;;;;;2090486;28;20139;-87
2022/01/16 01:59:56;;;;;;;33.88;16.85;;;2.50;97.00;;;;;;2088001;28;20120;-87
2022/01/16 02:00:56;;;;;;;34.13;16.90;;;2.50;97.00;;;;;;2081637;28;20052;-87
2022/01/16 02:01:57;;;;;;;28.80;15.60;;;2.50;97.00;;;;;;2081672;28;20044;-87
2022/01/16 02:04:05;;;;;;;33.97;16.15;;;2.50;97.10;;;;;;2089790;28;20504;-87
2022/01/16 02:05:06;;;;;;;31.30;15.52;;;2.50;97.10;;;;;;2076200;28;20065;-86
2022/01/16 02:06:15;;;;;;;30.70;16.27;;;2.50;97.10;;;;;;2089926;28;20505;-87
2022/01/16 02:07:15;;;;;;;36.45;17.27;;;2.50;97.10;;;;;;2080908;28;20057;-87
2022/01/16 02:08:16;;;;;;;28.42;15.35;;;2.50;97.10;;;;;;2075378;28;20053;-87
2022/01/16 02:09:17;;;;;;;32.75;16.20;;;2.50;97.00;;;;;;2076081;28;20034;-86
2022/01/16 02:10:18;;;;;;;30.98;15.80;;;2.50;97.00;;;;;;2072464;28;20045;-87
2022/01/16 02:11:25;;;;;;;28.67;14.68;;;2.50;97.10;;;;;;2077659;28;20474;-87
2022/01/16 02:12:26;;;;;;;33.30;15.98;;;2.50;97.10;;;;;;2082056;28;20025;-87
2022/01/16 02:13:31;;;;;;;32.78;15.93;;;2.50;97.10;;;;;;2083098;28;20452;-87
2022/01/16 02:14:46;;;;;;;32.72;15.82;;;2.50;97.10;;;;;;2089312;28;20403;-87
2022/01/16 02:29:02;;;;;;;28.70;14.68;;;2.30;97.00;;;;;;2090259;28;20079;-87
2022/01/16 02:31:26;;;;;;;29.20;16.15;;;2.30;97.00;;;;;;2078746;28;20034;-87
2022/01/16 02:34:45;;;;;;;28.38;15.10;;;2.30;97.00;;;;;;2088385;28;20033;-87
2022/01/16 02:35:48;;;;;;;28.40;14.48;;;2.30;97.00;;;;;;2082334;28;20048;-87
2022/01/16 02:36:51;;;;;;;31.55;15.73;;;2.40;97.00;;;;;;2073684;28;20030;-87
2022/01/16 02:37:52;;;;;;;29.77;15.32;;;2.40;97.10;;;;;;2068426;28;20800;-87
2022/01/16 02:39:00;;;;;;;29.55;16.13;;;2.40;97.10;;;;;;2085779;28;20056;-87
2022/01/16 02:40:09;;;;;;;32.72;15.02;;;2.40;97.10;;;;;;2083426;28;20095;-87
2022/01/16 02:41:10;;;;;;;27.35;15.35;;;2.40;97.10;;;;;;2081508;28;20053;-86
2022/01/16 02:42:12;;;;;;;28.35;15.23;;;2.40;97.00;;;;;;2090304;28;20040;-87
2022/01/16 02:43:15;;;;;;;32.53;16.85;;;2.40;97.00;;;;;;2090475;28;20039;-87
2022/01/16 02:45:31;;;;;;;32.50;15.68;;;2.40;97.10;;;;;;2082142;28;20403;-87
2022/01/16 02:47:33;;;;;;;30.83;16.40;;;2.40;97.00;;;;;;2079491;28;20479;-87
2022/01/16 02:48:33;;;;;;;43.10;18.65;;;2.40;97.00;;;;;;2080881;28;20048;-87
2022/01/16 02:49:34;;;;;;;36.08;16.50;;;2.40;97.00;;;;;;2073301;28;20080;-85
2022/01/16 02:50:37;;;;;;;28.67;15.07;;;2.40;97.00;;;;;;2082489;28;20415;-87
2022/01/16 02:51:38;;;;;;;30.10;15.35;;;2.40;97.00;;;;;;2078400;28;20038;-86
2022/01/16 02:52:38;;;;;;;30.30;15.18;;;2.50;97.10;;;;;;2081573;28;20037;-87
2022/01/16 02:53:39;;;;;;;31.77;16.13;;;2.50;97.10;;;;;;2081603;28;20407;-86
2022/01/16 02:54:42;;;;;;;32.75;16.70;;;2.50;97.10;;;;;;2079898;28;20025;-87
2022/01/16 02:55:45;;;;;;;32.55;16.13;;;2.50;97.10;;;;;;2082276;28;20510;-86
2022/01/16 02:56:48;;;;;;;33.13;16.58;;;2.40;97.10;;;;;;2082395;28;20120;-87
2022/01/16 02:57:54;;;;;;;29.83;16.40;;;2.50;97.10;;;;;;2084673;28;20052;-87
2022/01/16 02:58:55;;;;;;;30.60;16.25;;;2.50;97.10;;;;;;2076320;28;20046;-87
2022/01/16 02:59:56;;;;;;;30.45;15.50;;;2.50;97.30;;;;;;2080576;28;20062;-87
2022/01/16 03:00:56;;;;;;;33.88;17.42;;;2.50;97.10;;;;;;2098092;28;20173;-87
2022/01/16 03:01:57;;;;;;;32.30;16.95;;;2.50;97.10;;;;;;2087308;28;20041;-87
2022/01/16 03:02:58;;;;;;;30.33;15.77;;;2.50;97.10;;;;;;2073092;28;20080;-87
2022/01/16 03:03:59;;;;;;;31.20;16.00;;;2.50;97.10;;;;;;2073585;28;20508;-87
2022/01/16 03:05:00;;;;;;;32.35;16.42;;;2.50;97.10;;;;;;2073520;28;20050;-87
2022/01/16 03:06:01;;;;;;;31.25;15.02;;;2.50;97.10;;;;;;2090037;28;20025;-87
2022/01/16 03:07:03;;;;;;;31.45;15.77;;;2.50;97.10;;;;;;2089923;28;20410;-87
2022/01/16 03:08:05;;;;;;;30.70;16.25;;;2.50;97.10;;;;;;2078047;28;20034;-87
2022/01/16 03:09:08;;;;;;;32.63;15.98;;;2.50;97.10;;;;;;2081543;28;20592;-87
2022/01/16 03:11:34;;;;;;;32.28;16.80;;;2.50;97.10;;;;;;2087392;28;20048;-86
2022/01/16 03:12:34;;;;;;;31.85;15.43;;;2.50;97.10;;;;;;2085935;28;20044;-87
2022/01/16 03:13:44;;;;;;;32.67;15.68;;;2.50;97.10;;;;;;2090106;28;20048;-87
2022/01/16 03:14:45;;;;;;;30.83;16.67;;;2.50;97.10;;;;;;2075196;28;20392;-87
2022/01/16 03:15:45;;;;;;;31.83;16.30;;;2.50;97.10;;;;;;2076530;28;20045;-87
2022/01/16 03:16:50;;;;;;;32.83;16.25;;;2.50;97.10;;;;;;2081485;28;20030;-87
2022/01/16 03:21:55;;;;;;;29.48;15.18;;;2.50;97.10;;;;;;2085082;28;20048;-86
2022/01/16 03:22:56;;;;;;;29.02;15.13;;;2.50;97.10;;;;;;2082226;28;20045;-87
2022/01/16 03:23:56;;;;;;;31.10;15.60;;;2.50;97.10;;;;;;2089515;28;23056;-87
2022/01/16 03:24:57;;;;;;;32.30;15.00;;;2.50;97.10;;;;;;2089731;28;20041;-87
2022/01/16 03:25:58;;;;;;;28.40;14.25;;;2.50;97.10;;;;;;2073245;28;20073;-87
2022/01/16 03:27:02;;;;;;;29.25;15.07;;;2.50;97.10;;;;;;2073490;28;20392;-86
2022/01/16 03:28:03;;;;;;;26.63;14.50;;;2.50;97.10;;;;;;2081163;28;20124;-87
2022/01/16 03:29:04;;;;;;;28.92;15.20;;;2.50;97.10;;;;;;2073472;28;20041;-87
2022/01/16 03:30:05;;;;;;;25.77;14.63;;;2.60;97.10;;;;;;2075078;28;20090;-87
2022/01/16 03:31:06;;;;;;;29.50;14.52;;;2.60;97.10;;;;;;2081454;28;20037;-86
2022/01/16 03:32:10;;;;;;;29.23;14.27;;;2.60;97.10;;;;;;2086150;28;20099;-87
2022/01/16 03:33:10;;;;;;;30.63;14.80;;;2.60;97.10;;;;;;2080765;28;20092;-87
2022/01/16 03:34:11;;;;;;;30.65;13.82;;;2.60;97.10;;;;;;2081287;28;20170;-87
2022/01/16 03:35:12;;;;;;;26.45;14.30;;;2.60;97.10;;;;;;2096419;28;20041;-87
2022/01/16 03:36:12;;;;;;;27.02;14.38;;;2.60;97.10;;;;;;2082297;28;20059;-87
2022/01/16 03:37:14;;;;;;;27.98;14.88;;;2.60;97.10;;;;;;2080053;28;20392;-87
2022/01/16 03:38:15;;;;;;;29.52;14.80;;;2.60;97.10;;;;;;2079656;28;20042;-87
2022/01/16 03:39:16;;;;;;;27.20;13.98;;;2.60;97.10;;;;;;2073275;28;20125;-87
2022/01/16 03:40:20;;;;;;;29.45;14.98;;;2.60;97.10;;;;;;2072856;28;20125;-87
2022/01/16 03:41:21;;;;;;;30.95;14.48;;;2.60;97.10;;;;;;2072793;28;20033;-87
2022/01/16 03:42:26;;;;;;;29.83;14.02;;;2.70;97.20;;;;;;2086524;28;20119;-87
2022/01/16 03:43:27;;;;;;;26.90;14.20;;;2.70;97.10;;;;;;2073174;28;20484;-87
2022/01/16 03:44:29;;;;;;;28.73;13.75;;;2.70;97.10;;;;;;2065114;28;20097;-87
2022/01/16 03:45:30;;;;;;;28.85;14.30;;;2.70;97.20;;;;;;2069237;28;20041;-87
2022/01/16 03:46:37;;;;;;;31.70;14.43;;;2.70;97.10;;;;;;2081224;28;20033;-87
2022/01/16 03:47:37;;;;;;;30.15;14.02;;;2.70;97.10;;;;;;2090013;28;20025;-87
2022/01/16 03:48:38;;;;;;;31.13;14.75;;;2.70;97.10;;;;;;2077889;28;20048;-87
2022/01/16 03:49:38;;;;;;;27.65;14.27;;;2.70;97.10;;;;;;2078324;28;20042;-87
2022/01/16 03:50:39;;;;;;;33.72;14.77;;;2.70;97.10;;;;;;2081451;28;20041;-87
2022/01/16 03:51:41;;;;;;;35.83;15.90;;;2.70;97.10;;;;;;2084336;28;20594;-87
2022/01/16 03:52:42;;;;;;;31.60;14.77;;;2.70;97.10;;;;;;2082345;28;20514;-87
2022/01/16 03:53:44;;;;;;;26.63;13.75;;;2.70;97.10;;;;;;2082104;28;20048;-87
2022/01/16 03:54:45;;;;;;;31.80;16.08;;;2.70;97.10;;;;;;2073010;28;20052;-87
2022/01/16 03:55:47;;;;;;;34.40;15.75;;;2.70;97.10;;;;;;2082852;28;20057;-87
2022/01/16 03:56:48;;;;;;;31.67;16.00;;;2.70;97.10;;;;;;2089420;28;20742;-87
2022/01/16 03:57:48;;;;;;;32.80;15.23;;;2.70;97.10;;;;;;2081401;28;20026;-87
2022/01/16 03:58:49;;;;;;;32.63;14.35;;;2.70;97.10;;;;;;2081169;28;20137;-87
2022/01/16 03:59:50;;;;;;;29.60;15.18;;;2.70;97.10;;;;;;2089713;28;20043;-87
2022/01/16 04:00:50;;;;;;;30.73;15.63;;;2.70;97.10;;;;;;2084959;28;20098;-87
2022/01/16 04:01:51;;;;;;;31.80;15.25;;;2.70;97.10;;;;;;2096474;28;20182;-87
2022/01/16 04:02:52;;;;;;;29.65;14.65;;;2.70;97.10;;;;;;2079078;28;20083;-87
2022/01/16 04:03:54;;;;;;;28.67;14.52;;;2.70;97.10;;;;;;2080441;28;20068;-87
2022/01/16 04:04:55;;;;;;;31.70;15.02;;;2.70;97.10;;;;;;2084504;28;20033;-87
2022/01/16 04:05:56;;;;;;;33.38;16.77;;;2.70;97.10;;;;;;2089996;28;20072;-87
2022/01/16 04:06:57;;;;;;;34.00;15.48;;;2.70;97.10;;;;;;2086790;28;20092;-87
2022/01/16 04:07:59;;;;;;;30.48;14.98;;;2.70;97.10;;;;;;2090087;28;20045;-87
2022/01/16 04:09:01;;;;;;;33.88;16.10;;;2.70;97.10;;;;;;2088852;28;20159;-87
2022/01/16 04:10:07;;;;;;;32.10;15.23;;;2.70;97.10;;;;;;2082891;28;20034;-87
2022/01/16 04:11:08;;;;;;;31.98;14.70;;;2.70;97.10;;;;;;2089106;28;20051;-87
2022/01/16 04:12:10;;;;;;;31.25;15.65;;;2.70;97.10;;;;;;2087272;28;20397;-87
2022/01/16 04:13:12;;;;;;;32.05;15.65;;;2.70;97.10;;;;;;2064442;28;20045;-87
2022/01/16 04:14:21;;;;;;;32.55;15.57;;;2.70;97.10;;;;;;2073197;28;20037;-87
2022/01/16 04:15:31;;;;;;;32.47;15.60;;;2.70;97.10;;;;;;2072783;28;20048;-87
2022/01/16 04:16:33;;;;;;;32.17;15.02;;;2.70;97.10;;;;;;2074049;28;20069;-87
2022/01/16 04:17:34;;;;;;;34.92;15.73;;;2.70;97.10;;;;;;2071415;28;20041;-86
2022/01/16 04:18:34;;;;;;;35.13;15.43;;;2.70;97.10;;;;;;2081217;28;20455;-87
2022/01/16 04:19:35;;;;;;;46.70;18.90;;;2.80;97.20;;;;;;2088921;28;20478;-87
2022/01/16 04:20:36;;;;;;;39.35;17.48;;;2.70;97.10;;;;;;2065755;28;20121;-87
2022/01/16 04:21:36;;;;;;;36.70;16.15;;;2.70;97.10;;;;;;2072893;28;20463;-86
2022/01/16 04:22:38;;;;;;;37.45;17.92;;;2.70;97.10;;;;;;2080311;28;20481;-87
2022/01/16 04:23:39;;;;;;;35.03;16.90;;;2.70;97.20;;;;;;2073150;28;20038;-86
2022/01/16 04:24:40;;;;;;;47.35;19.33;;;2.70;97.20;;;;;;2080376;28;20040;-87
2022/01/16 04:25:41;;;;;;;37.33;17.02;;;2.70;97.10;;;;;;2072250;28;20029;-87
2022/01/16 04:26:42;;;;;;;40.97;17.92;;;2.70;97.10;;;;;;2064860;28;20038;-87
2022/01/16 04:27:42;;;;;;;37.50;17.08;;;2.70;97.10;;;;;;2077357;28;20061;-87
2022/01/16 04:28:46;;;;;;;36.25;16.80;;;2.70;97.40;;;;;;2087082;28;20048;-87
2022/01/16 04:29:47;;;;;;;36.78;16.40;;;2.70;97.10;;;;;;2078068;28;20032;-86
2022/01/16 04:30:47;;;;;;;39.45;17.60;;;2.70;97.10;;;;;;2080731;28;20175;-87
2022/01/16 04:31:48;;;;;;;34.80;16.52;;;2.70;97.10;;;;;;2084195;28;20037;-87
2022/01/16 04:32:48;;;;;;;39.42;17.60;;;2.70;97.10;;;;;;2083290;28;20069;-87
2022/01/16 04:33:49;;;;;;;41.97;18.02;;;2.70;97.10;;;;;;2083363;28;20034;-87
2022/01/16 04:34:50;;;;;;;40.35;18.50;;;2.70;97.10;;;;;;2085599;28;20083;-87
2022/01/16 04:35:50;;;;;;;42.03;18.27;;;2.70;97.10;;;;;;2076277;28;20069;-87
2022/01/16 04:36:51;;;;;;;34.00;15.88;;;2.70;97.10;;;;;;2069362;28;20041;-86
2022/01/16 04:37:52;;;;;;;40.25;18.40;;;2.70;97.10;;;;;;2073040;28;20054;-86
2022/01/16 04:38:52;;;;;;;36.30;17.25;;;2.70;97.10;;;;;;2080513;28;20083;-87
2022/01/16 04:39:59;;;;;;;38.30;16.83;;;2.70;97.20;;;;;;2077091;28;20045;-87
2022/01/16 04:43:47;;;;;;;38.03;16.30;;;2.80;97.20;;;;;;2082793;28;20683;-87
2022/01/16 04:44:49;;;;;;;31.77;15.35;;;2.80;97.10;;;;;;2067515;28;20035;-87
2022/01/16 04:45:50;;;;;;;37.22;17.02;;;2.70;97.40;;;;;;2068140;28;20035;-87
2022/01/16 04:46:50;;;;;;;35.67;16.33;;;2.80;97.10;;;;;;2078242;28;20037;-87
2022/01/16 04:47:52;;;;;;;39.45;17.27;;;2.80;97.20;;;;;;2079534;28;20037;-87
2022/01/16 04:48:55;;;;;;;36.17;17.00;;;2.80;97.20;;;;;;2080994;28;20510;-87
2022/01/16 04:49:55;;;;;;;36.53;16.70;;;2.80;97.10;;;;;;2072000;28;20770;-87
2022/01/16 04:50:56;;;;;;;36.72;16.83;;;2.80;97.20;;;;;;2077695;28;20136;-87
2022/01/16 04:51:56;;;;;;;35.45;16.90;;;2.80;97.10;;;;;;2087271;28;20554;-87
2022/01/16 04:52:57;;;;;;;40.38;18.63;;;2.80;97.10;;;;;;2082990;28;20048;-86
2022/01/16 04:53:58;;;;;;;40.17;18.52;;;2.80;97.10;;;;;;2075822;28;20138;-87
2022/01/16 04:54:59;;;;;;;38.45;18.42;;;2.80;97.10;;;;;;2080810;28;20438;-87
2022/01/16 04:55:59;;;;;;;35.63;17.40;;;2.80;97.10;;;;;;2088352;28;20111;-87
2022/01/16 04:57:00;;;;;;;37.90;17.02;;;2.80;97.10;;;;;;2083282;28;20048;-87
2022/01/16 04:58:01;;;;;;;35.50;16.80;;;2.80;97.20;;;;;;2079722;28;20075;-87
2022/01/16 04:59:01;;;;;;;38.65;18.08;;;2.80;97.20;;;;;;2066115;28;20046;-87
2022/01/16 05:00:05;;;;;;;36.85;18.42;;;2.80;97.10;;;;;;2088297;28;20084;-86
2022/01/16 05:01:07;;;;;;;37.08;17.20;;;2.80;97.20;;;;;;2090344;28;20075;-87
2022/01/16 05:02:07;;;;;;;35.63;18.13;;;2.80;97.20;;;;;;2088476;28;20036;-87
2022/01/16 05:03:09;;;;;;;38.25;17.88;;;2.80;97.20;;;;;;2083928;28;20077;-86
2022/01/16 05:04:10;;;;;;;34.50;17.30;;;2.80;97.20;;;;;;2085745;28;20033;-87
2022/01/16 05:05:11;;;;;;;33.72;17.13;;;2.80;97.20;;;;;;2090497;28;20073;-87
2022/01/16 05:06:12;;;;;;;32.78;16.98;;;2.80;97.20;;;;;;2087843;28;20031;-87
2022/01/16 05:07:13;;;;;;;35.40;16.52;;;2.80;97.20;;;;;;2087839;28;21755;-87
2022/01/16 05:08:14;;;;;;;34.15;17.08;;;2.90;97.20;;;;;;2075467;28;20041;-87
2022/01/16 05:09:15;;;;;;;36.53;17.58;;;2.90;97.20;;;;;;2078463;28;20040;-87
2022/01/16 05:10:15;;;;;;;36.55;17.88;;;2.90;97.10;;;;;;2074733;28;20042;-87
2022/01/16 05:11:21;;;;;;;39.53;18.38;;;2.90;97.10;;;;;;2075968;28;20034;-87
2022/01/16 05:12:31;;;;;;;35.20;17.83;;;2.80;97.10;;;;;;2084534;28;20033;-87
2022/01/16 05:17:16;;;;;;;37.50;17.65;;;2.80;97.10;;;;;;2082334;28;20095;-87
2022/01/16 05:18:17;;;;;;;38.08;18.25;;;2.80;97.10;;;;;;2090344;28;20467;-87
2022/01/16 05:19:19;;;;;;;37.45;17.08;;;2.90;97.10;;;;;;2089644;28;20086;-87
2022/01/16 05:20:20;;;;;;;36.92;17.77;;;2.90;97.10;;;;;;2082065;28;20096;-87
2022/01/16 05:21:21;;;;;;;35.13;18.08;;;2.90;97.10;;;;;;2087380;28;20041;-87
2022/01/16 05:22:21;;;;;;;39.38;17.63;;;2.80;97.10;;;;;;2083502;28;20029;-87
2022/01/16 05:23:22;;;;;;;35.40;17.95;;;2.80;97.40;;;;;;2081460;28;20038;-87
2022/01/16 05:24:28;;;;;;;39.60;19.33;;;2.80;97.10;;;;;;2082399;28;20125;-87
2022/01/16 05:25:28;;;;;;;36.35;18.33;;;2.80;97.10;;;;;;2087067;28;20053;-86
2022/01/16 05:26:29;;;;;;;36.15;18.67;;;2.80;97.10;;;;;;2075630;28;20057;-87
2022/01/16 05:27:30;;;;;;;39.25;19.35;;;2.90;97.20;;;;;;2089619;28;20559;-87
2022/01/16 05:28:31;;;;;;;37.63;18.70;;;2.90;97.10;;;;;;2088755;28;20380;-87
2022/01/16 05:29:31;;;;;;;36.67;18.88;;;2.90;97.20;;;;;;2079461;28;20427;-87
2022/01/16 05:30:32;;;;;;;41.65;20.35;;;2.80;97.10;;;;;;2098918;28;20128;-87
2022/01/16 05:31:32;;;;;;;41.50;21.23;;;2.90;97.10;;;;;;2089338;28;20111;-87
2022/01/16 05:32:33;;;;;;;37.75;19.88;;;2.90;97.10;;;;;;2076943;28;20033;-86
2022/01/16 05:33:34;;;;;;;41.15;20.67;;;2.90;97.10;;;;;;2082126;28;20050;-87
2022/01/16 05:34:35;;;;;;;42.22;21.35;;;2.90;97.10;;;;;;2086680;28;20476;-87
2022/01/16 05:35:36;;;;;;;41.40;20.58;;;2.90;97.10;;;;;;2076515;28;20052;-87
2022/01/16 05:36:37;;;;;;;40.75;20.65;;;2.90;97.10;;;;;;2082325;28;20124;-87
2022/01/16 05:37:37;;;;;;;40.40;20.15;;;2.80;97.10;;;;;;2094666;28;20055;-87
2022/01/16 05:38:38;;;;;;;41.70;21.15;;;2.90;97.10;;;;;;2082107;28;20575;-87
2022/01/16 05:39:40;;;;;;;38.10;20.98;;;2.90;97.10;;;;;;2090474;28;20219;-87
2022/01/16 05:40:43;;;;;;;40.20;20.65;;;2.90;97.10;;;;;;2098664;28;20050;-87
2022/01/16 05:41:43;;;;;;;40.30;20.27;;;2.90;97.10;;;;;;2085192;28;20526;-87
2022/01/16 05:42:44;;;;;;;36.38;20.65;;;2.90;97.10;;;;;;2079151;28;20037;-87
2022/01/16 05:43:45;;;;;;;36.92;19.67;;;2.90;97.10;;;;;;2069977;28;20073;-87
2022/01/16 05:44:46;;;;;;;40.22;19.88;;;2.90;97.20;;;;;;2078901;28;20088;-87
2022/01/16 05:45:47;;;;;;;40.50;20.15;;;2.90;97.20;;;;;;2086653;28;20487;-86
2022/01/16 05:46:47;;;;;;;38.10;20.50;;;2.90;97.20;;;;;;2082016;28;20061;-87
2022/01/16 05:47:48;;;;;;;41.05;20.65;;;2.90;97.20;;;;;;2073878;28;20121;-87
2022/01/16 05:48:50;;;;;;;39.95;21.13;;;2.90;97.40;;;;;;2067625;28;20046;-87
2022/01/16 05:49:51;;;;;;;38.30;21.27;;;2.90;97.10;;;;;;2083323;28;20052;-86
2022/01/16 05:50:51;;;;;;;41.50;21.20;;;2.90;97.10;;;;;;2069790;28;20469;-87
2022/01/16 05:51:52;;;;;;;41.78;21.73;;;2.90;97.10;;;;;;2073777;28;20069;-87
2022/01/16 05:52:53;;;;;;;43.58;21.40;;;2.90;97.10;;;;;;2073910;28;20074;-87
2022/01/16 05:53:56;;;;;;;42.28;21.85;;;2.90;97.20;;;;;;2081726;28;20998;-86
2022/01/16 05:54:57;;;;;;;43.35;22.25;;;2.90;97.10;;;;;;2091745;28;20040;-87
2022/01/16 05:55:57;;;;;;;46.15;22.50;;;2.90;97.10;;;;;;2078089;28;20064;-87
2022/01/16 05:56:58;;;;;;;41.65;21.45;;;2.90;97.10;;;;;;2081699;28;20475;-87
2022/01/16 05:57:58;;;;;;;42.17;21.85;;;2.90;97.10;;;;;;2081406;28;20411;-87
2022/01/16 05:58:59;;;;;;;44.97;22.42;;;2.90;97.10;;;;;;2077740;28;20049;-87
2022/01/16 06:00:00;;;;;;;42.38;21.83;;;2.90;97.10;;;;;;2079181;28;20040;-87